Time;durP1;ratioP1;P1;durP2;ratioP2;P2;SDS_P1;SDS_P2;PMS_P1;PMS_P2;Temp;Humidity;BMP_temperature;BMP_pressure;BME280_temperature;BME280_humidity;BME280_pressure;Samples;Min_cycle;Max_cycle;Signal;HPM_P1;HPM_P2
2022/03/19 02:45:45;;;;;;;42.80;21.50;;;-6.10;1.00;;;-5.48;89.11;101935.16;4902514;28;131411;-90
2022/03/19 02:53:46;;;;;;;41.13;21.98;;;-6.20;1.00;;;-5.45;88.80;101933.03;4862982;28;115953;-92
2022/03/19 04:06:40;;;;;;;80.30;34.20;;;-6.40;1.00;;;-5.75;90.25;101938.56;4803470;29;117213;-93
2022/03/19 04:09:10;;;;;;;66.32;30.27;;;-6.40;1.00;;;-5.63;89.78;101938.25;4790762;29;113737;-93
2022/03/19 04:12:19;;;;;;;65.20;28.67;;;-6.40;1.00;;;-5.63;89.56;101938.25;4777448;29;129366;-92
2022/03/19 04:14:50;;;;;;;59.40;28.63;;;-6.40;1.00;;;-5.55;89.08;101939.34;4791979;29;128206;-93
2022/03/19 04:18:13;;;;;;;63.38;27.73;;;-6.40;1.00;;;-5.65;88.96;101937.56;4791535;29;119605;-90
2022/03/19 04:22:06;;;;;;;62.72;26.75;;;-6.40;1.00;;;-5.69;89.75;101940.66;4802931;29;115669;-91
2022/03/19 04:25:12;;;;;;;57.83;26.73;;;-6.40;1.00;;;-5.61;89.11;101956.63;4801244;29;129626;-90
2022/03/19 04:27:44;;;;;;;55.08;26.08;;;-6.40;1.00;;;-5.45;88.89;101962.16;4806978;29;128490;-90
2022/03/19 04:30:33;;;;;;;50.67;23.98;;;-6.40;1.00;;;-5.42;88.54;101966.31;4808519;29;118614;-93
2022/03/19 04:33:26;;;;;;;45.75;23.33;;;-6.40;1.00;;;-5.33;87.73;101959.31;4790181;29;114955;-92
2022/03/19 04:38:44;;;;;;;45.92;22.98;;;-6.30;1.00;;;-5.15;86.59;101957.53;4783002;29;128714;-90
2022/03/19 04:41:15;;;;;;;53.08;24.65;;;-6.20;1.00;;;-5.04;86.96;101961.81;4782969;29;117715;-92
2022/03/19 04:44:29;;;;;;;49.80;24.65;;;-6.10;1.00;;;-5.02;86.29;101966.97;4797936;29;115323;-89
2022/03/19 04:47:09;;;;;;;46.63;22.85;;;-6.10;1.00;;;-4.89;86.03;101962.97;4784277;29;128830;-93
2022/03/19 04:49:41;;;;;;;48.63;23.83;;;-6.00;1.00;;;-4.75;85.77;101964.28;4784149;29;129181;-94
2022/03/19 04:52:10;;;;;;;44.97;23.55;;;-5.80;1.00;;;-4.61;85.01;101964.72;4809669;29;117668;-91
2022/03/19 04:54:39;;;;;;;45.72;23.48;;;-5.70;1.00;;;-4.49;84.62;101968.81;4807780;29;115111;-85
2022/03/19 04:57:09;;;;;;;50.60;24.20;;;-5.60;1.00;;;-4.35;84.65;101973.63;4797954;29;128966;-90
2022/03/19 04:59:38;;;;;;;53.83;24.13;;;-5.50;1.00;;;-4.21;83.62;101980.16;4757738;29;129519;-89
2022/03/19 05:02:07;;;;;;;46.40;22.95;;;-5.40;1.00;;;-4.07;83.09;101986.75;4767291;29;117236;-90
2022/03/19 05:05:18;;;;;;;45.65;23.33;;;-5.30;1.00;;;-4.01;84.05;101982.66;4765079;29;115429;-91
2022/03/19 05:07:50;;;;;;;47.03;22.58;;;-5.20;1.00;;;-3.81;83.23;101980.66;4753768;29;130646;-89
2022/03/19 05:13:11;;;;;;;71.63;36.55;;;-4.90;1.00;;;-3.78;83.35;101985.66;4781687;29;118866;-91
2022/03/19 05:15:42;;;;;;;64.28;31.05;;;-4.80;1.00;;;-3.50;83.16;101988.16;4767439;29;116394;-90
2022/03/19 05:18:13;;;;;;;54.00;26.80;;;-4.70;1.00;;;-3.22;82.51;101995.94;4767205;29;128546;-90
2022/03/19 05:20:45;;;;;;;57.42;26.42;;;-4.50;1.00;;;-3.02;82.10;102002.66;4748082;29;128690;-88
2022/03/19 05:23:18;;;;;;;53.90;27.10;;;-4.40;1.00;;;-2.85;82.04;102000.88;4766485;29;119800;-90
2022/03/19 05:28:43;;;;;;;43.88;21.98;;;-4.00;1.00;;;-2.53;80.76;102005.44;4707244;29;130157;-90
2022/03/19 05:31:14;;;;;;;46.58;21.50;;;-3.90;1.00;;;-2.30;80.35;102004.00;4715039;29;129472;-89
2022/03/19 05:36:32;;;;;;;44.25;22.60;;;-3.60;1.00;;;-1.98;77.93;102019.13;4737502;29;115191;-90
2022/03/19 05:39:11;;;;;;;42.30;22.30;;;-3.40;1.00;;;-1.80;76.56;102024.28;4749273;29;129411;-89
2022/03/19 05:41:44;;;;;;;38.28;20.05;;;-3.30;1.00;;;-1.66;75.20;102020.94;4739321;29;128578;-89
2022/03/19 05:44:27;;;;;;;42.28;20.77;;;-3.10;1.00;;;-1.60;71.58;102027.44;4748830;29;117178;-89
2022/03/19 05:46:58;;;;;;;44.45;21.58;;;-2.90;1.00;;;-1.42;70.74;102029.06;4761008;29;115037;-89
2022/03/19 05:49:29;;;;;;;38.95;21.92;;;-2.70;1.00;;;-1.23;69.25;102026.03;4714105;29;129750;-90
2022/03/19 05:52:26;;;;;;;41.88;21.45;;;-2.50;1.00;;;-0.93;68.74;102035.06;4719401;29;128522;-89
2022/03/19 05:55:02;;;;;;;46.95;22.30;;;-2.40;1.00;;;-0.63;67.81;102045.91;4731080;29;119422;-89
2022/03/19 05:57:32;;;;;;;47.28;22.90;;;-2.20;1.00;;;-0.47;67.03;102034.31;4726636;29;115704;-88
2022/03/19 06:02:49;;;;;;;39.22;22.10;;;-2.00;1.00;;;-0.24;65.07;102038.88;4717008;29;129434;-89
2022/03/19 06:05:24;;;;;;;43.20;22.63;;;-1.90;1.00;;;-0.12;63.91;102037.44;4714531;29;117214;-93
2022/03/19 06:07:54;;;;;;;41.60;20.77;;;-1.70;1.00;;;0.02;63.05;102043.00;4714063;29;114904;-90
2022/03/19 06:10:22;;;;;;;38.83;20.88;;;-1.60;1.00;;;0.24;61.95;102052.84;4713392;29;128902;-89
2022/03/19 06:12:52;;;;;;;41.20;22.73;;;-1.50;1.00;;;0.40;60.86;102048.38;4713009;29;129318;-88
2022/03/19 06:15:22;;;;;;;46.42;24.50;;;-1.30;1.00;;;0.42;60.10;102059.69;4712807;29;117875;-91
2022/03/19 06:17:51;;;;;;;52.83;25.27;;;-1.20;1.00;;;0.52;60.50;102054.94;4701644;29;115142;-92
2022/03/19 06:20:22;;;;;;;46.03;22.45;;;-1.10;1.00;;;0.69;60.48;102061.78;4715896;29;129298;-91
2022/03/19 06:22:52;;;;;;;44.45;22.40;;;-0.90;1.00;;;0.90;60.12;102065.56;4708630;29;128858;-91
2022/03/19 06:25:20;;;;;;;44.67;22.55;;;-0.80;1.00;;;1.01;59.58;102059.78;4707990;29;117747;-91
2022/03/19 06:27:49;;;;;;;39.15;20.85;;;-0.70;1.00;;;1.04;59.54;102053.19;4726514;29;115866;-92
2022/03/19 06:30:17;;;;;;;36.42;20.77;;;-0.60;1.00;;;1.24;58.74;102058.81;4695191;29;130378;-90
2022/03/19 06:32:48;;;;;;;39.05;20.88;;;-0.40;1.00;;;1.33;57.77;102068.41;4719692;29;128802;-89
2022/03/19 06:37:19;;;;;;;36.70;20.58;;;-0.30;1.00;;;1.46;57.37;102066.91;4707337;29;117985;-89
2022/03/19 06:38:05;;;;;;;36.83;19.25;;;-0.20;1.00;;;1.68;55.93;102073.13;4714383;29;115104;-90
2022/03/19 06:47:10;;;;;;;37.53;20.08;;;0.30;1.00;;;1.95;54.55;102068.88;4739855;29;118786;-89
2022/03/19 06:49:41;;;;;;;40.00;19.85;;;0.40;1.00;;;2.45;54.47;102071.59;4735503;29;114946;-88
2022/03/19 06:52:14;;;;;;;39.33;19.80;;;0.60;1.00;;;2.74;54.26;102080.44;4742961;29;128555;-86
2022/03/19 06:54:53;;;;;;;37.75;20.42;;;0.80;1.00;;;2.98;53.72;102088.03;4727259;29;128733;-89
2022/03/19 06:57:28;;;;;;;39.45;20.88;;;1.00;1.00;;;3.05;52.95;102080.00;4713911;29;116946;-89
2022/03/19 07:00:46;;;;;;;36.42;19.27;;;1.10;1.00;;;2.87;52.54;102086.72;4730631;29;114525;-92
2022/03/19 07:03:17;;;;;;;35.67;18.60;;;1.00;1.00;;;2.95;51.83;102087.63;4728358;29;129275;-89
2022/03/19 07:05:49;;;;;;;44.42;20.33;;;1.30;1.00;;;3.01;52.01;102092.19;4711442;29;127785;-89
2022/03/19 07:08:18;;;;;;;30.98;16.52;;;1.40;1.00;;;3.26;50.00;102092.53;4738485;29;118818;-90
2022/03/19 07:10:48;;;;;;;32.63;17.85;;;1.50;1.00;;;3.39;48.55;102094.44;4728419;29;115660;-89
2022/03/19 07:13:19;;;;;;;29.52;18.23;;;1.70;1.00;;;3.44;49.32;102083.91;4742151;29;129257;-86
2022/03/19 07:15:50;;;;;;;36.33;18.33;;;1.90;1.00;;;3.51;49.04;102092.84;4741606;29;129713;-88
2022/03/19 07:18:21;;;;;;;29.73;17.15;;;2.00;1.00;;;3.37;48.88;102080.41;4725777;29;118715;-87
2022/03/19 07:20:52;;;;;;;27.67;16.85;;;2.10;1.00;;;3.57;48.59;102086.66;4741442;29;115135;-90
2022/03/19 07:23:24;;;;;;;32.65;17.42;;;2.20;1.00;;;3.83;48.43;102084.25;4739530;29;128922;-90
2022/03/19 07:25:59;;;;;;;32.25;17.88;;;2.30;1.00;;;3.90;48.60;102085.94;4724786;29;129596;-90
2022/03/19 07:28:30;;;;;;;32.78;16.90;;;2.50;1.00;;;3.99;47.34;102083.03;4740952;29;117798;-89
2022/03/19 07:31:02;;;;;;;28.80;16.13;;;2.60;1.00;;;4.06;45.89;102089.25;4727650;29;114653;-89
2022/03/19 07:33:34;;;;;;;30.77;18.00;;;2.60;1.00;;;4.05;46.64;102088.44;4712553;29;129858;-90
2022/03/19 07:36:06;;;;;;;28.05;16.65;;;2.80;1.00;;;4.58;45.52;102087.63;4729807;29;129226;-88
2022/03/19 07:44:08;;;;;;;26.48;14.73;;;3.10;1.00;;;4.76;43.97;102084.28;4726816;29;129427;-90
2022/03/19 07:46:42;;;;;;;24.35;15.57;;;3.30;1.00;;;4.76;42.21;102078.09;4719129;29;128012;-88
2022/03/19 07:49:11;;;;;;;25.83;13.60;;;3.50;1.00;;;4.54;43.04;102072.13;4729785;29;117932;-89
2022/03/19 07:51:44;;;;;;;26.05;15.57;;;3.50;1.00;;;5.19;42.52;102074.91;4741394;29;114087;-89
2022/03/19 07:54:13;;;;;;;24.73;13.45;;;3.70;1.00;;;5.36;40.82;102075.22;4725486;29;129889;-89
2022/03/19 07:56:42;;;;;;;22.45;14.73;;;3.80;1.00;;;5.69;40.26;102068.88;4727309;29;129315;-89
2022/03/19 07:59:13;;;;;;;25.77;15.32;;;4.00;1.00;;;5.98;39.59;102075.53;4727312;29;117830;-89
2022/03/19 08:01:43;;;;;;;24.40;12.35;;;4.20;1.00;;;5.82;38.47;102082.25;4707147;29;115361;-89
2022/03/19 08:04:16;;;;;;;22.55;12.85;;;4.30;1.00;;;5.70;39.54;102084.81;4753122;29;129582;-89
2022/03/19 08:06:49;;;;;;;23.30;13.05;;;4.40;1.00;;;5.72;39.39;102082.72;4739543;29;129286;-89
2022/03/19 08:09:21;;;;;;;22.73;13.90;;;4.60;1.00;;;5.92;39.26;102077.22;4725580;29;118349;-90
2022/03/19 08:11:50;;;;;;;23.75;13.80;;;4.60;1.00;;;5.93;39.00;102073.47;4696549;29;114968;-89
2022/03/19 08:14:21;;;;;;;23.02;13.43;;;4.60;1.00;;;6.20;38.98;102075.19;4710843;29;128051;-90
2022/03/19 08:16:53;;;;;;;20.67;12.02;;;4.70;1.00;;;6.04;37.86;102076.56;4710808;29;129544;-90
2022/03/19 08:19:25;;;;;;;20.83;12.95;;;4.70;1.00;;;6.00;36.80;102083.41;4682302;29;117999;-90
2022/03/19 08:21:56;;;;;;;24.98;15.30;;;4.80;1.00;;;6.00;36.34;102078.88;4711008;29;114922;-89
2022/03/19 08:24:30;;;;;;;18.90;11.55;;;5.00;1.00;;;5.97;35.71;102079.31;4696158;29;129415;-91
2022/03/19 08:27:04;;;;;;;17.42;10.70;;;5.00;1.00;;;6.08;36.02;102084.00;4711442;29;129123;-90
2022/03/19 08:29:44;;;;;;;17.83;11.23;;;5.10;1.00;;;5.89;34.32;102087.59;4711890;29;118303;-90
2022/03/19 08:32:58;;;;;;;18.48;11.20;;;5.00;1.00;;;6.40;33.95;102089.34;4697903;29;115635;-89
2022/03/19 08:35:30;;;;;;;21.83;11.55;;;5.30;1.00;;;6.25;34.31;102080.78;4710713;29;129826;-90
2022/03/19 08:41:05;;;;;;;17.98;10.75;;;5.40;1.00;;;6.59;33.74;102089.41;4725997;29;118233;-88
2022/03/19 08:43:44;;;;;;;18.02;9.80;;;5.50;1.00;;;6.57;32.98;102099.59;4712125;29;114814;-92
2022/03/19 08:46:26;;;;;;;15.35;8.88;;;5.60;1.00;;;6.76;32.02;102086.97;4700274;29;129094;-89
2022/03/19 08:54:38;;;;;;;11.57;7.93;;;5.70;1.00;;;6.83;31.94;102082.34;4726188;29;113577;-89
2022/03/19 08:57:08;;;;;;;16.65;9.73;;;5.70;1.00;;;6.75;32.47;102091.53;4699604;29;129722;-90
2022/03/19 08:59:43;;;;;;;15.75;9.35;;;5.80;1.00;;;7.00;32.52;102085.28;4776114;24;128878;-91
2022/03/19 09:02:49;;;;;;;19.27;10.30;;;5.90;1.00;;;7.44;31.50;102096.81;4748639;29;121011;-89
2022/03/19 09:05:46;;;;;;;16.23;9.15;;;6.20;1.00;;;7.18;30.98;102098.78;4764567;29;116251;-89
2022/03/19 09:11:31;;;;;;;15.55;9.25;;;6.40;1.00;;;7.11;30.70;102091.81;4754398;29;128216;-90
2022/03/19 09:14:05;;;;;;;16.52;8.65;;;6.20;1.00;;;7.12;30.55;102096.13;4755258;29;118262;-90
2022/03/19 09:16:38;;;;;;;13.63;8.18;;;6.20;1.00;;;7.29;29.72;102096.38;4752080;29;114306;-91
2022/03/19 09:19:07;;;;;;;15.20;8.68;;;6.20;1.00;;;7.20;30.27;102095.88;4754709;29;129180;-92
2022/03/19 09:22:50;;;;;;;15.75;8.73;;;6.30;1.00;;;7.63;29.39;102094.09;4754182;29;129308;-93
2022/03/19 09:25:32;;;;;;;17.33;8.80;;;6.40;1.00;;;7.82;29.45;102095.72;4752445;29;117444;-92
2022/03/19 09:28:52;;;;;;;15.98;9.95;;;6.50;1.00;;;8.30;28.70;102102.06;4757702;29;113893;-91
2022/03/19 09:31:30;;;;;;;16.70;9.00;;;6.80;1.00;;;7.84;29.05;102093.59;4754198;29;129000;-90
2022/03/19 09:33:59;;;;;;;14.43;9.13;;;6.70;1.00;;;7.78;29.44;102105.31;4753483;29;128573;-89
2022/03/19 09:36:48;;;;;;;17.73;9.88;;;6.70;1.00;;;7.90;28.99;102098.06;4755506;29;117359;-92
2022/03/19 09:39:20;;;;;;;13.50;7.80;;;6.80;1.00;;;8.36;28.13;102092.19;4752015;29;114201;-89
2022/03/19 09:41:56;;;;;;;23.30;9.10;;;7.00;1.00;;;8.18;28.51;102099.34;4765670;29;130237;-91
2022/03/19 09:44:27;;;;;;;12.93;7.38;;;7.00;1.00;;;7.54;28.45;102099.81;4748045;29;127918;-88
2022/03/19 09:47:15;;;;;;;13.63;8.50;;;6.90;1.00;;;8.09;27.47;102098.03;4752409;29;118586;-93
2022/03/19 09:49:49;;;;;;;13.55;8.10;;;7.00;1.00;;;7.77;27.80;102103.66;4724784;29;114825;-90
2022/03/19 09:52:24;;;;;;;16.00;7.78;;;6.80;1.00;;;7.89;28.28;102091.00;4741766;29;128653;-90
2022/03/19 09:55:06;;;;;;;14.20;8.50;;;6.80;1.00;;;7.83;28.47;102091.94;4763950;29;129075;-91
2022/03/19 09:57:34;;;;;;;13.13;7.53;;;7.10;1.00;;;8.43;28.40;102095.59;4781677;29;117496;-91
2022/03/19 10:00:08;;;;;;;15.10;8.38;;;7.20;1.00;;;7.99;27.67;102105.84;4769935;29;113705;-92
2022/03/19 10:03:38;;;;;;;12.43;8.00;;;7.20;1.00;;;8.26;27.94;102100.88;4770040;29;130571;-91
2022/03/19 10:09:19;;;;;;;13.38;7.47;;;7.00;1.00;;;8.50;26.82;102101.75;4787817;29;117634;-90
2022/03/19 10:15:12;;;;;;;11.95;6.63;;;7.20;1.00;;;8.69;27.13;102105.19;4800926;29;130317;-87
2022/03/19 10:17:41;;;;;;;11.80;6.97;;;7.50;1.00;;;8.69;25.97;102099.78;4786837;29;129425;-88
2022/03/19 10:20:13;;;;;;;12.48;6.70;;;7.40;1.00;;;8.52;26.31;102102.34;4766630;29;118588;-90
2022/03/19 10:22:54;;;;;;;12.93;7.55;;;7.20;1.00;;;8.87;25.98;102101.53;4764433;29;113502;-91
2022/03/19 10:25:43;;;;;;;14.13;7.60;;;7.40;1.00;;;8.57;27.44;102096.22;4764316;29;129526;-91
2022/03/19 10:28:14;;;;;;;10.70;7.03;;;7.50;1.00;;;9.10;26.63;102094.44;4777877;29;129299;-90
2022/03/19 10:30:45;;;;;;;11.50;7.03;;;7.70;1.00;;;8.62;26.77;102099.91;4748594;29;118874;-91
2022/03/19 10:33:18;;;;;;;17.00;9.90;;;7.50;1.00;;;8.82;25.63;102087.91;4764184;29;113623;-91
2022/03/19 10:35:52;;;;;;;11.82;7.30;;;7.60;1.00;;;8.26;26.00;102085.47;4775778;29;129281;-91
2022/03/19 10:38:38;;;;;;;9.27;5.97;;;7.40;1.00;;;8.13;26.49;102091.06;4731018;29;130003;-92
2022/03/19 10:41:43;;;;;;;14.15;7.00;;;7.30;1.00;;;8.55;26.89;102088.34;4761202;29;118429;-90
2022/03/19 10:47:58;;;;;;;13.02;7.90;;;7.70;1.00;;;8.10;26.92;102080.72;4763681;29;128415;-92
2022/03/19 10:50:27;;;;;;;13.23;7.18;;;7.30;1.00;;;8.20;26.47;102080.97;4738741;29;130754;-91
2022/03/19 10:52:57;;;;;;;13.48;7.38;;;7.30;1.00;;;8.50;27.09;102074.69;4765750;29;117973;-94
2022/03/19 10:55:28;;;;;;;14.80;8.85;;;7.40;1.00;;;8.40;26.74;102085.25;4754326;29;114093;-90
2022/03/19 10:58:05;;;;;;;14.30;7.82;;;7.50;1.00;;;8.82;26.44;102074.38;4767289;29;129397;-91
2022/03/19 11:00:38;;;;;;;12.35;6.78;;;7.50;1.00;;;9.25;26.42;102069.56;4745290;29;128621;-89
2022/03/19 11:03:14;;;;;;;12.13;6.82;;;7.90;1.00;;;9.59;25.78;102075.94;4717668;29;118500;-91
2022/03/19 11:05:45;;;;;;;15.20;7.68;;;8.20;1.00;;;9.39;26.30;102068.22;4753429;29;114469;-93
2022/03/19 11:08:19;;;;;;;12.70;7.55;;;8.10;1.00;;;9.07;26.32;102067.81;4769925;29;129672;-91
2022/03/19 11:15:14;;;;;;;13.38;6.10;;;8.00;1.00;;;8.20;27.17;102070.16;4754048;29;118647;-90
2022/03/19 11:17:50;;;;;;;9.38;6.15;;;7.70;1.00;;;8.50;26.91;102069.28;4752236;29;115113;-90
2022/03/19 11:20:27;;;;;;;12.45;6.53;;;7.70;1.00;;;8.52;26.83;102072.56;4751826;29;129730;-92
2022/03/19 11:23:15;;;;;;;10.30;6.30;;;7.70;1.00;;;8.54;26.79;102070.47;4786378;29;128917;-91
2022/03/19 11:25:57;;;;;;;10.38;5.88;;;7.80;1.00;;;7.92;26.48;102068.09;4751892;29;117426;-92
2022/03/19 11:28:35;;;;;;;10.98;6.28;;;7.50;1.00;;;8.68;26.85;102051.28;4752023;29;114589;-92
2022/03/19 11:31:27;;;;;;;11.18;5.97;;;7.70;1.00;;;9.02;26.57;102059.59;4782547;29;129220;-91
2022/03/19 11:34:38;;;;;;;11.18;6.85;;;7.90;1.00;;;9.28;26.45;102059.06;4783097;29;128923;-91
2022/03/19 11:37:13;;;;;;;10.40;6.32;;;8.00;1.00;;;9.26;26.15;102061.19;4751517;29;119129;-91
2022/03/19 11:40:32;;;;;;;12.23;7.35;;;8.10;1.00;;;9.37;26.85;102045.16;4751422;29;113728;-90
2022/03/19 11:43:10;;;;;;;11.00;6.97;;;8.10;1.00;;;9.25;26.79;102054.13;4750806;29;129311;-87
2022/03/19 11:45:54;;;;;;;11.35;5.85;;;8.20;1.00;;;8.71;26.59;102056.22;4766090;29;129066;-91
2022/03/19 11:48:59;;;;;;;12.38;6.55;;;7.90;1.00;;;8.96;26.97;102054.09;4752723;29;117020;-91
2022/03/19 11:52:39;;;;;;;13.57;6.97;;;8.00;1.00;;;9.06;25.89;102052.66;4767816;29;114685;-89
2022/03/19 11:58:28;;;;;;;13.40;6.70;;;8.30;1.00;;;9.28;26.04;102042.81;4782835;29;129562;-89
2022/03/19 12:01:04;;;;;;;41.10;17.20;;;8.30;1.00;;;9.03;25.80;102050.44;4765368;29;118247;-91
2022/03/19 12:03:36;;;;;;;33.65;13.93;;;8.20;1.00;;;9.70;25.46;102045.22;4751512;29;115818;-89
2022/03/19 12:06:30;;;;;;;20.55;10.15;;;8.50;1.00;;;9.35;26.34;102048.09;4750254;29;129652;-90
2022/03/19 12:09:02;;;;;;;35.78;20.88;;;8.50;1.00;;;9.13;24.97;102046.03;4735241;29;128747;-91
2022/03/19 12:11:32;;;;;;;9.68;6.15;;;8.40;1.00;;;8.71;25.29;102037.25;4750094;29;117949;-90
2022/03/19 12:14:09;;;;;;;11.60;6.15;;;8.00;1.00;;;8.86;25.70;102040.31;4751146;29;114689;-91
2022/03/19 12:16:45;;;;;;;13.43;7.00;;;8.20;1.00;;;8.93;26.03;102041.00;4764742;29;129657;-91
2022/03/19 12:19:37;;;;;;;9.30;5.88;;;8.20;1.00;;;9.24;25.96;102038.09;4764613;29;129733;-91
2022/03/19 12:22:13;;;;;;;10.05;5.63;;;8.40;1.00;;;9.21;25.24;102041.28;4752282;29;118266;-92
2022/03/19 12:24:53;;;;;;;9.70;5.63;;;8.50;1.00;;;8.87;25.24;102047.38;4761690;29;114580;-91
2022/03/19 12:27:23;;;;;;;10.35;6.10;;;8.20;1.00;;;8.60;26.17;102050.59;4746336;29;129743;-91
2022/03/19 12:29:58;;;;;;;10.07;5.88;;;8.00;1.00;;;8.81;26.06;102041.03;4732059;29;129497;-92
2022/03/19 12:32:32;;;;;;;10.18;6.50;;;8.20;1.00;;;9.36;25.70;102033.47;4746620;29;118552;-91
2022/03/19 12:35:08;;;;;;;13.30;6.97;;;8.30;1.00;;;9.51;25.60;102035.66;4732627;29;114362;-90
2022/03/19 12:37:50;;;;;;;;;;;8.50;1.00;;;9.25;26.04;102037.88;4734240;29;129151;-90
2022/03/19 12:41:23;;;;;;;10.45;5.82;;;8.50;1.00;;;9.12;26.29;102043.56;4732451;29;128665;-91
2022/03/19 12:43:23;;;;;;;9.35;5.93;;;8.40;1.00;;;9.12;25.72;102038.16;4765147;29;118452;-91
2022/03/19 12:46:05;;;;;;;9.85;6.25;;;8.40;1.00;;;9.22;26.02;102038.34;4748308;29;115153;-91
2022/03/19 12:48:39;;;;;;;10.25;6.00;;;8.50;1.00;;;9.06;25.51;102033.69;4746748;29;128392;-91
2022/03/19 12:51:12;;;;;;;11.55;7.07;;;8.30;1.00;;;8.92;26.73;102036.66;4731610;29;131721;-91
2022/03/19 12:53:47;;;;;;;12.13;7.35;;;8.20;1.00;;;9.09;25.99;102041.34;4745965;29;117410;-91
2022/03/19 12:56:21;;;;;;;9.37;6.40;;;8.30;1.00;;;9.12;26.29;102035.44;4758035;29;114939;-92
2022/03/19 12:58:53;;;;;;;11.00;6.72;;;8.40;1.00;;;9.06;25.55;102023.66;4766439;29;131101;-92
2022/03/19 13:01:24;;;;;;;9.45;5.80;;;8.30;1.00;;;9.29;26.13;102036.34;4788287;29;128758;-91
2022/03/19 13:04:05;;;;;;;47.25;25.85;;;8.40;1.00;;;9.38;25.42;102025.94;4788552;29;118361;-90
2022/03/19 13:06:41;;;;;;;52.70;28.73;;;8.40;1.00;;;9.80;25.58;102027.50;4801442;29;115563;-90
2022/03/19 13:09:33;;;;;;;12.68;6.88;;;8.60;1.00;;;9.52;25.64;102021.03;4787027;29;130838;-90
2022/03/19 13:12:10;;;;;;;13.05;6.75;;;8.50;1.00;;;9.35;25.85;102021.00;4801256;29;131249;-90
2022/03/19 13:14:39;;;;;;;86.53;41.83;;;8.50;1.00;;;10.00;26.09;102014.31;4787219;29;118570;-90
2022/03/19 13:17:11;;;;;;;17.63;10.00;;;8.70;1.00;;;9.86;25.38;102021.09;4756510;29;115097;-90
2022/03/19 13:19:51;;;;;;;10.80;5.97;;;8.70;1.00;;;9.48;26.19;102026.13;4785763;29;129663;-91
2022/03/19 13:22:39;;;;;;;12.23;6.50;;;8.60;1.00;;;9.50;26.35;102018.56;4800192;29;129938;-90
2022/03/19 13:28:13;;;;;;;9.98;6.00;;;8.40;1.00;;;9.30;25.29;102019.03;4809658;29;114767;-89
2022/03/19 13:30:44;;;;;;;9.38;6.03;;;8.40;1.00;;;8.90;26.36;102025.25;4793683;29;129417;-90
2022/03/19 13:33:15;;;;;;;11.10;6.00;;;8.30;1.00;;;8.78;26.17;102010.91;4791523;29;129214;-88
2022/03/19 13:35:51;;;;;;;10.52;5.80;;;8.20;1.00;;;8.91;26.80;102005.25;4786455;29;117292;-90
2022/03/19 13:38:55;;;;;;;10.27;5.95;;;8.30;1.00;;;8.93;26.59;102008.53;4753049;29;115145;-92
2022/03/19 13:41:40;;;;;;;11.20;6.18;;;8.30;1.00;;;8.54;27.26;102002.81;4767617;29;129867;-91
2022/03/19 13:44:10;;;;;;;10.90;6.75;;;8.20;1.00;;;9.18;26.56;102004.69;4767576;29;129426;-91
2022/03/19 13:46:41;;;;;;;11.00;6.47;;;8.40;1.00;;;9.19;25.64;101995.47;4782619;29;118325;-90
2022/03/19 13:49:24;;;;;;;9.88;6.45;;;8.20;1.00;;;8.92;26.81;101995.22;4783790;29;114638;-92
2022/03/19 13:51:57;;;;;;;9.57;6.32;;;8.20;1.00;;;8.92;27.07;101995.22;4799289;29;129370;-90
2022/03/19 13:54:46;;;;;;;9.25;5.65;;;8.30;1.00;;;8.58;26.77;101990.44;4767654;29;128914;-90
2022/03/19 13:57:21;;;;;;;9.82;5.97;;;8.20;1.00;;;8.70;26.99;101986.91;4783063;29;118435;-90
2022/03/19 14:00:04;;;;;;;10.25;6.43;;;8.20;1.00;;;8.71;27.53;101993.94;4799032;29;115044;-92
2022/03/19 14:02:54;;;;;;;12.82;6.45;;;8.20;1.00;;;8.90;27.10;101991.94;4794443;29;130269;-90
2022/03/19 14:05:28;;;;;;;10.70;5.75;;;8.20;1.00;;;9.17;26.69;101990.28;4781546;29;129352;-90
2022/03/19 14:08:00;;;;;;;12.32;8.20;;;8.30;1.00;;;9.44;25.83;101991.59;4766951;29;118012;-90
2022/03/19 14:10:36;;;;;;;12.05;7.35;;;8.30;1.00;;;9.52;26.13;101993.91;4766964;29;114230;-91
2022/03/19 14:13:10;;;;;;;9.63;6.20;;;8.30;1.00;;;9.52;25.88;101983.06;4781925;29;129083;-91
2022/03/19 14:15:44;;;;;;;9.63;5.80;;;8.40;1.00;;;9.10;26.59;101986.09;4781148;29;130009;-91
2022/03/19 14:18:24;;;;;;;10.88;5.88;;;8.30;1.00;;;8.75;26.45;101989.72;4781395;29;117948;-90
2022/03/19 14:20:56;;;;;;;10.90;6.00;;;8.20;1.00;;;9.13;26.37;101978.31;4781565;29;113689;-91
2022/03/19 14:23:33;;;;;;;9.68;6.05;;;8.30;1.00;;;9.12;25.96;101983.97;4765922;29;130072;-89
2022/03/19 14:26:12;;;;;;;;;;;8.20;1.00;;;8.98;26.74;101981.53;4781727;29;129572;-89
2022/03/19 14:28:46;;;;;;;11.82;6.20;;;8.30;1.00;;;9.05;26.88;101980.56;4768132;29;117186;-90
2022/03/19 14:31:19;;;;;;;13.77;6.88;;;8.30;1.00;;;9.00;27.19;101971.28;4766220;29;115319;-92
2022/03/19 14:33:50;;;;;;;9.27;5.25;;;8.30;1.00;;;9.09;26.69;101979.03;4781158;29;129210;-90
2022/03/19 14:36:22;;;;;;;10.18;6.03;;;8.30;1.00;;;9.11;26.58;101972.28;4780848;29;128639;-90
2022/03/19 14:38:52;;;;;;;9.85;6.07;;;8.30;1.00;;;9.11;27.48;101972.28;4752423;29;118203;-91
2022/03/19 14:41:28;;;;;;;9.90;5.97;;;8.20;1.00;;;9.21;26.48;101966.28;4781697;29;114388;-90
2022/03/19 14:44:05;;;;;;;10.95;6.78;;;8.20;1.00;;;9.15;26.40;101967.25;4781513;29;130527;-90
2022/03/19 14:46:35;;;;;;;13.50;7.47;;;8.20;1.00;;;9.48;26.42;101968.38;4766169;29;129206;-88
2022/03/19 14:49:08;;;;;;;10.43;6.30;;;8.30;1.00;;;9.51;26.16;101976.03;4766370;29;118533;-90
2022/03/19 14:51:39;;;;;;;11.40;7.18;;;8.70;1.00;;;10.10;26.03;101967.53;4781782;29;115376;-90
2022/03/19 14:54:25;;;;;;;12.25;6.85;;;9.20;1.00;;;10.36;25.43;101963.31;4780648;29;130126;-91
2022/03/19 14:57:02;;;;;;;10.30;6.47;;;10.00;1.00;;;11.20;24.46;101969.50;4765494;29;127654;-90
2022/03/19 14:59:38;;;;;;;10.63;5.95;;;10.70;1.00;;;11.31;24.01;101959.56;4797573;29;117966;-90
2022/03/19 15:02:18;;;;;;;9.60;6.00;;;11.00;1.00;;;11.57;23.63;101968.00;4781567;29;114891;-91
2022/03/19 15:05:00;;;;;;;10.40;6.45;;;10.80;1.00;;;10.88;24.55;101972.97;4766761;29;128896;-91
2022/03/19 15:07:33;;;;;;;12.73;5.72;;;9.60;1.00;;;10.15;25.64;101962.16;4782392;29;129694;-90
2022/03/19 15:10:08;;;;;;;10.00;5.93;;;8.70;1.00;;;9.55;26.35;101960.91;4784571;29;117987;-91
2022/03/19 15:12:41;;;;;;;11.48;6.82;;;8.30;1.00;;;9.32;26.50;101957.25;4754484;29;114137;-91
2022/03/19 15:15:15;;;;;;;10.75;6.00;;;8.20;1.00;;;9.77;25.81;101957.47;4798883;29;129865;-92
2022/03/19 15:17:44;;;;;;;10.63;5.68;;;8.50;1.00;;;10.26;25.20;101955.81;4768774;29;129839;-91
2022/03/19 15:20:17;;;;;;;11.75;5.90;;;9.40;1.00;;;11.83;23.92;101950.81;4769538;29;117894;-91
2022/03/19 15:22:53;;;;;;;16.10;6.00;;;10.00;1.00;;;14.01;21.78;101943.97;4769037;29;113420;-89
2022/03/19 15:25:24;;;;;;;11.02;6.57;;;10.90;1.00;;;15.32;20.33;101949.50;4768490;29;128062;-90
2022/03/19 15:27:53;;;;;;;12.93;8.63;;;11.10;1.00;;;16.96;18.97;101941.59;4768295;29;128834;-90
2022/03/19 15:30:25;;;;;;;18.25;8.63;;;11.80;1.00;;;18.22;17.97;101954.69;4783477;29;118131;-92
2022/03/19 15:32:54;;;;;;;8.75;6.10;;;12.20;1.00;;;17.79;17.96;101943.88;4768639;29;114903;-90
2022/03/19 15:35:27;;;;;;;101.93;84.13;;;11.90;1.00;;;17.93;17.94;101944.75;4783780;29;129084;-90
2022/03/19 15:38:01;;;;;;;12.60;8.15;;;12.10;1.00;;;17.31;18.12;101938.63;4783341;29;129620;-90
2022/03/19 15:40:32;;;;;;;11.52;7.07;;;11.90;1.00;;;16.67;18.55;101947.16;4754285;29;118517;-91
2022/03/19 15:43:03;;;;;;;11.63;7.32;;;11.60;1.00;;;17.15;18.53;101949.03;4783829;29;114269;-90
2022/03/19 15:45:35;;;;;;;13.02;6.85;;;11.30;1.00;;;17.56;18.40;101945.63;4783822;29;128358;-90
2022/03/19 15:48:07;;;;;;;10.18;6.53;;;11.70;1.00;;;17.42;18.36;101951.06;4783561;29;129166;-91
2022/03/19 15:50:39;;;;;;;13.48;8.68;;;11.80;1.00;;;17.17;18.54;101953.09;4769029;29;118194;-91
2022/03/19 15:53:15;;;;;;;11.65;8.27;;;11.30;1.00;;;16.31;19.14;101948.41;4784707;29;114594;-90
2022/03/19 15:55:46;;;;;;;11.15;6.35;;;11.10;1.00;;;15.28;20.12;101954.69;4769263;29;130172;-91